FSF722 LSZB-LIML
Flight info
| Callsign | FSF722 |
|---|---|
| Flight time | N/A |
| Altitude | 22000 |
| Route | MONIN Z119 SOSON/N0272F230 N850 ODINA |
| Aircraft | PC12/L-SDFGRWY/S |
Departure
| Time | 2026-04-19 08:30 |
|---|---|
| Airport | Bern Airport (LSZB) |
Arrival
| Time | N/A |
|---|---|
| Airport | Milano Linate Airport (LIML) |
| Time | Latitude | Longitude | Altitude | Speed | Heading |
|---|---|---|---|---|---|
| 2026-04-19 08:30 | 46.98233 | 7.43949 | 6005 ft | 176 kts | 43° |
| 2026-04-19 08:30 | 46.98724 | 7.45590 | 6525 ft | 182 kts | 89° |
| 2026-04-19 08:30 | 46.98318 | 7.47313 | 7021 ft | 179 kts | 136° |
| 2026-04-19 08:31 | 46.97284 | 7.48207 | 7495 ft | 172 kts | 166° |
| 2026-04-19 08:31 | 46.96197 | 7.48989 | 7932 ft | 179 kts | 154° |
| 2026-04-19 08:31 | 46.95136 | 7.50003 | 8435 ft | 181 kts | 151° |
| 2026-04-19 08:31 | 46.94093 | 7.51047 | 8937 ft | 183 kts | 151° |
| 2026-04-19 08:32 | 46.93034 | 7.52095 | 9459 ft | 185 kts | 152° |
| 2026-04-19 08:32 | 46.91960 | 7.53152 | 9960 ft | 186 kts | 152° |
| 2026-04-19 08:32 | 46.90882 | 7.54212 | 10424 ft | 188 kts | 152° |
| 2026-04-19 08:32 | 46.89793 | 7.55284 | 10882 ft | 190 kts | 152° |
| 2026-04-19 08:33 | 46.88695 | 7.56364 | 11345 ft | 191 kts | 152° |
| 2026-04-19 08:33 | 46.87601 | 7.57438 | 11799 ft | 193 kts | 152° |
| 2026-04-19 08:33 | 46.86541 | 7.58672 | 12244 ft | 199 kts | 134° |
| 2026-04-19 08:33 | 46.85773 | 7.60317 | 12673 ft | 203 kts | 126° |
| 2026-04-19 08:34 | 46.85256 | 7.61490 | 12982 ft | 204 kts | 126° |
| 2026-04-19 08:34 | 46.84221 | 7.63792 | 13582 ft | 205 kts | 126° |
| 2026-04-19 08:34 | 46.83434 | 7.65544 | 14048 ft | 207 kts | 126° |
| 2026-04-19 08:34 | 46.82899 | 7.66735 | 14326 ft | 208 kts | 126° |
| 2026-04-19 08:35 | 46.81847 | 7.69080 | 14853 ft | 210 kts | 126° |
| 2026-04-19 08:35 | 46.81302 | 7.70294 | 15128 ft | 211 kts | 126° |
| 2026-04-19 08:35 | 46.80494 | 7.72093 | 15527 ft | 213 kts | 126° |
| 2026-04-19 08:35 | 46.79680 | 7.73904 | 15936 ft | 214 kts | 126° |
| 2026-04-19 08:36 | 46.78856 | 7.75737 | 16344 ft | 216 kts | 126° |
| 2026-04-19 08:36 | 46.78031 | 7.77573 | 16751 ft | 218 kts | 126° |
| 2026-04-19 08:36 | 46.77194 | 7.79432 | 17183 ft | 219 kts | 126° |
| 2026-04-19 08:36 | 46.76351 | 7.81304 | 17579 ft | 221 kts | 126° |
| 2026-04-19 08:37 | 46.75516 | 7.83157 | 17987 ft | 223 kts | 126° |
| 2026-04-19 08:37 | 46.74661 | 7.85053 | 18367 ft | 224 kts | 126° |
| 2026-04-19 08:37 | 46.73806 | 7.86950 | 18722 ft | 226 kts | 126° |
| 2026-04-19 08:37 | 46.72933 | 7.88883 | 19055 ft | 227 kts | 126° |
| 2026-04-19 08:38 | 46.72061 | 7.90815 | 19401 ft | 228 kts | 126° |
| 2026-04-19 08:38 | 46.71184 | 7.92754 | 19712 ft | 230 kts | 126° |
| 2026-04-19 08:38 | 46.70307 | 7.94692 | 20026 ft | 231 kts | 126° |
| 2026-04-19 08:38 | 46.69410 | 7.96676 | 20375 ft | 233 kts | 127° |
| 2026-04-19 08:39 | 46.68575 | 7.98700 | 20714 ft | 236 kts | 114° |
| 2026-04-19 08:39 | 46.68153 | 8.01012 | 21017 ft | 238 kts | 100° |
| 2026-04-19 08:39 | 46.67864 | 8.03399 | 21328 ft | 240 kts | 101° |
| 2026-04-19 08:39 | 46.67560 | 8.05799 | 21659 ft | 241 kts | 101° |
| 2026-04-19 08:40 | 46.67251 | 8.08215 | 21953 ft | 243 kts | 101° |
| 2026-04-19 08:40 | 46.66944 | 8.10638 | 22029 ft | 255 kts | 101° |
| 2026-04-19 08:40 | 46.66614 | 8.13248 | 22041 ft | 267 kts | 101° |
| 2026-04-19 08:40 | 46.66265 | 8.15998 | 22032 ft | 277 kts | 101° |
| 2026-04-19 08:41 | 46.65909 | 8.18789 | 22028 ft | 284 kts | 101° |
| 2026-04-19 08:41 | 46.65548 | 8.21626 | 22091 ft | 286 kts | 101° |
| 2026-04-19 08:41 | 46.65183 | 8.24486 | 22151 ft | 290 kts | 101° |
| 2026-04-19 08:41 | 46.64813 | 8.27379 | 22152 ft | 293 kts | 101° |
| 2026-04-19 08:42 | 46.64383 | 8.30734 | 22154 ft | 295 kts | 101° |
| 2026-04-19 08:42 | 46.64060 | 8.33249 | 22155 ft | 298 kts | 101° |
| 2026-04-19 08:42 | 46.63679 | 8.36204 | 22159 ft | 299 kts | 101° |
| 2026-04-19 08:42 | 46.63294 | 8.39186 | 22145 ft | 299 kts | 102° |
| 2026-04-19 08:43 | 46.62911 | 8.42156 | 22150 ft | 300 kts | 102° |
| 2026-04-19 08:43 | 46.62537 | 8.45062 | 22145 ft | 300 kts | 101° |
| 2026-04-19 08:43 | 46.62120 | 8.48291 | 22142 ft | 300 kts | 102° |
| 2026-04-19 08:43 | 46.61711 | 8.51336 | 22138 ft | 299 kts | 104° |
| 2026-04-19 08:44 | 46.60971 | 8.54139 | 22135 ft | 295 kts | 121° |
| 2026-04-19 08:44 | 46.60258 | 8.55735 | 22124 ft | 293 kts | 131° |
| 2026-04-19 08:44 | 46.58269 | 8.58412 | 22125 ft | 284 kts | 152° |
| 2026-04-19 08:44 | 46.56530 | 8.59665 | 22125 ft | 276 kts | 166° |
| 2026-04-19 08:45 | 46.54681 | 8.60280 | 22119 ft | 270 kts | 180° |
| 2026-04-19 08:45 | 46.52840 | 8.60531 | 22124 ft | 269 kts | 181° |
| 2026-04-19 08:45 | 46.50970 | 8.60793 | 22122 ft | 270 kts | 181° |
| 2026-04-19 08:45 | 46.49095 | 8.61062 | 22114 ft | 271 kts | 180° |
| 2026-04-19 08:46 | 46.47213 | 8.61330 | 22111 ft | 272 kts | 181° |
| 2026-04-19 08:46 | 46.45338 | 8.61594 | 22109 ft | 270 kts | 181° |
| 2026-04-19 08:46 | 46.43465 | 8.61859 | 22108 ft | 269 kts | 181° |
| 2026-04-19 08:46 | 46.41599 | 8.62121 | 22104 ft | 271 kts | 181° |
| 2026-04-19 08:47 | 46.39724 | 8.62385 | 22094 ft | 271 kts | 180° |
| 2026-04-19 08:47 | 46.37850 | 8.62650 | 22101 ft | 271 kts | 181° |
| 2026-04-19 08:47 | 46.35971 | 8.62915 | 22091 ft | 271 kts | 181° |
| 2026-04-19 08:47 | 46.34086 | 8.63180 | 22016 ft | 273 kts | 181° |
| 2026-04-19 08:48 | 46.32186 | 8.63445 | 21809 ft | 276 kts | 181° |
| 2026-04-19 08:48 | 46.30263 | 8.63715 | 21595 ft | 278 kts | 180° |
| 2026-04-19 08:48 | 46.28339 | 8.63987 | 21364 ft | 277 kts | 180° |
| 2026-04-19 08:48 | 46.26435 | 8.64257 | 21170 ft | 274 kts | 180° |
| 2026-04-19 08:49 | 46.24578 | 8.64515 | 20963 ft | 275 kts | 180° |
| 2026-04-19 08:49 | 46.22640 | 8.64786 | 20755 ft | 277 kts | 180° |
| 2026-04-19 08:49 | 46.20730 | 8.65054 | 20551 ft | 276 kts | 180° |
| 2026-04-19 08:49 | 46.18824 | 8.65322 | 20355 ft | 277 kts | 180° |
| 2026-04-19 08:50 | 46.16886 | 8.65592 | 20148 ft | 276 kts | 180° |
| 2026-04-19 08:50 | 46.14974 | 8.65859 | 19950 ft | 277 kts | 180° |
| 2026-04-19 08:50 | 46.13052 | 8.66127 | 19752 ft | 277 kts | 180° |
| 2026-04-19 08:50 | 46.11887 | 8.66291 | 19626 ft | 276 kts | 180° |
| 2026-04-19 08:51 | 46.09416 | 8.67290 | 19362 ft | 284 kts | 159° |
| 2026-04-19 08:51 | 46.07558 | 8.68742 | 19148 ft | 284 kts | 156° |
| 2026-04-19 08:51 | 46.05810 | 8.70129 | 18981 ft | 284 kts | 156° |
| 2026-04-19 08:51 | 46.04072 | 8.71490 | 18791 ft | 285 kts | 156° |
| 2026-04-19 08:52 | 46.02327 | 8.72851 | 18601 ft | 285 kts | 156° |
| 2026-04-19 08:52 | 46.00582 | 8.74217 | 18409 ft | 285 kts | 156° |
| 2026-04-19 08:52 | 45.98862 | 8.75563 | 18188 ft | 285 kts | 156° |
| 2026-04-19 08:52 | 45.97096 | 8.76943 | 17980 ft | 285 kts | 156° |
| 2026-04-19 08:53 | 45.95382 | 8.78282 | 17759 ft | 284 kts | 155° |
| 2026-04-19 08:53 | 45.93622 | 8.79655 | 17557 ft | 284 kts | 155° |
| 2026-04-19 08:53 | 45.91909 | 8.80991 | 17332 ft | 284 kts | 155° |
| 2026-04-19 08:53 | 45.90154 | 8.82359 | 17118 ft | 281 kts | 155° |
| 2026-04-19 08:54 | 45.88435 | 8.83695 | 16915 ft | 281 kts | 155° |
| 2026-04-19 08:54 | 45.87291 | 8.84584 | 16780 ft | 282 kts | 155° |
| 2026-04-19 08:54 | 45.85476 | 8.85997 | 16559 ft | 282 kts | 155° |
| 2026-04-19 08:54 | 45.83764 | 8.87328 | 16352 ft | 282 kts | 155° |
| 2026-04-19 08:55 | 45.81944 | 8.88742 | 16136 ft | 281 kts | 155° |
| 2026-04-19 08:55 | 45.80322 | 8.90000 | 15945 ft | 280 kts | 154° |
| 2026-04-19 08:55 | 45.78451 | 8.91451 | 15723 ft | 280 kts | 154° |
| 2026-04-19 08:55 | 45.76831 | 8.92706 | 15533 ft | 279 kts | 154° |
| 2026-04-19 08:56 | 45.75119 | 8.94032 | 15335 ft | 279 kts | 154° |
| 2026-04-19 08:56 | 45.73468 | 8.95309 | 15141 ft | 278 kts | 154° |
| 2026-04-19 08:56 | 45.71851 | 8.96559 | 14954 ft | 278 kts | 154° |
| 2026-04-19 08:56 | 45.70147 | 8.97877 | 14763 ft | 277 kts | 154° |
| 2026-04-19 08:57 | 45.68450 | 8.99187 | 14562 ft | 277 kts | 154° |
| 2026-04-19 08:57 | 45.66755 | 9.00494 | 14371 ft | 276 kts | 154° |
| 2026-04-19 08:57 | 45.65059 | 9.01802 | 14169 ft | 276 kts | 154° |